Carter, Oklahoma
Current Conditions -  °F | °C
As of 1:35 PM on Thursday 27 Nov 2014 (Local Time) from KELK Reporting Station
Clear Clear  
Wind Chill: 50°   Ceiling: Unl
Heat Index: 50°   Visibility: 10mi
Dew Point: 28°   Wind: 15mph
Humidity: 43%   Direction: 190°S
Pressure: 30.42"   Gusts: 21mph
Location:  35.22°N, 99.51°W
Report Text: KELK 271935Z AUTO 19013G18KT 10SM CLR 10/M02 A3042 RMK AO2
Loading
Personal Weather Stations






























Interactive Weather Map New forecast layout! Learn more

10-Day Weather Forecast

Advertisements
Track Severe Weather on mobile